Time;durP1;ratioP1;P1;durP2;ratioP2;P2;SDS_P1;SDS_P2;PMS_P1;PMS_P2;Temp;Humidity;BMP_temperature;BMP_pressure;BME280_temperature;BME280_humidity;BME280_pressure;Samples;Min_cycle;Max_cycle;Signal;HPM_P1;HPM_P2
2024/03/11 00:01:54;;;;;;;6.75;4.13;;;;;;;25.81;32.72;98487.75;7388588;19;20471;-87
2024/03/11 00:04:20;;;;;;;28.23;4.85;;;;;;;24.73;34.25;98489.66;7389085;19;20043;-87
2024/03/11 00:06:48;;;;;;;8.18;3.10;;;;;;;24.86;33.71;98492.00;7387612;19;20021;-87
2024/03/11 00:09:28;;;;;;;8.13;4.22;;;;;;;24.00;35.06;98489.41;7388582;19;20026;-87
2024/03/11 00:11:55;;;;;;;20.92;6.00;;;;;;;23.55;35.61;98491.09;7390216;19;20014;-86
2024/03/11 00:14:33;;;;;;;9.07;3.83;;;;;;;25.00;34.04;98489.38;7388367;19;20007;-87
2024/03/11 00:17:03;;;;;;;22.67;3.60;;;;;;;25.31;34.06;98490.84;7387266;19;20103;-87
2024/03/11 00:19:29;;;;;;;15.93;4.22;;;;;;;24.77;34.10;98487.09;7387597;19;20015;-87
2024/03/11 00:21:57;;;;;;;7.38;3.42;;;;;;;25.98;32.92;98492.38;7396735;19;20041;-87
2024/03/11 00:24:23;;;;;;;7.50;3.17;;;;;;;25.53;33.62;98489.47;7395712;19;20026;-87
2024/03/11 00:26:50;;;;;;;15.73;3.78;;;;;;;25.46;33.68;98490.44;7393512;19;20410;-88
2024/03/11 00:29:18;;;;;;;12.55;6.13;;;;;;;27.33;31.69;98492.25;7393158;19;20104;-87
2024/03/11 00:31:45;;;;;;;21.00;4.93;;;;;;;25.74;33.32;98497.25;7393860;19;20470;-87
2024/03/11 00:34:16;;;;;;;13.25;4.20;;;;;;;25.34;33.52;98501.00;7393373;19;20010;-87
2024/03/11 00:36:42;;;;;;;5.25;2.65;;;;;;;24.57;34.47;98506.34;7393740;19;20014;-87
2024/03/11 00:39:15;;;;;;;8.60;2.92;;;;;;;24.29;34.44;98504.34;7398824;19;20079;-87
2024/03/11 00:41:41;;;;;;;27.75;4.50;;;;;;;24.06;35.41;98504.84;7397563;19;20024;-87
2024/03/11 00:44:07;;;;;;;4.55;2.83;;;;;;;24.86;34.25;98511.94;7398256;19;20182;-87
2024/03/11 00:46:35;;;;;;;9.38;4.82;;;;;;;25.36;33.65;98509.69;7396037;19;20014;-87
2024/03/11 00:49:02;;;;;;;12.65;3.38;;;;;;;25.44;33.50;98504.56;7394971;19;20030;-87
2024/03/11 00:51:29;;;;;;;20.48;5.60;;;;;;;24.67;34.54;98509.13;7396167;19;20049;-87
2024/03/11 00:53:56;;;;;;;7.97;3.75;;;;;;;23.21;36.36;98509.16;7398654;19;20030;-87
2024/03/11 00:56:23;;;;;;;7.10;3.65;;;;;;;24.03;35.62;98511.72;7394000;19;20015;-87
2024/03/11 00:58:49;;;;;;;11.60;4.28;;;;;;;25.43;34.13;98516.56;7395367;19;20041;-88
2024/03/11 01:01:16;;;;;;;14.60;4.25;;;;;;;24.85;34.33;98507.59;7397601;19;20018;-87
2024/03/11 01:03:43;;;;;;;12.48;2.88;;;;;;;23.25;36.12;98511.53;7396952;19;20022;-87
2024/03/11 01:06:10;;;;;;;12.23;3.40;;;;;;;21.29;38.94;98511.47;7397481;19;20011;-88
2024/03/11 01:08:38;;;;;;;9.73;5.28;;;;;;;23.81;36.87;98506.50;7394129;19;20030;-87
2024/03/11 01:11:04;;;;;;;9.70;4.70;;;;;;;26.64;32.96;98510.16;7393032;19;20021;-87
2024/03/11 01:13:30;;;;;;;12.60;4.35;;;;;;;27.42;31.91;98517.84;7394141;19;20020;-88
2024/03/11 01:15:56;;;;;;;14.23;4.97;;;;;;;29.34;30.10;98515.00;7392565;19;20015;-86
2024/03/11 01:18:24;;;;;;;12.70;5.85;;;;;;;29.85;29.56;98521.91;7400554;19;20023;-87
2024/03/11 01:20:51;;;;;;;3.70;2.33;;;;;;;30.04;29.54;98519.94;7399424;19;20475;-87
2024/03/11 01:23:18;;;;;;;5.78;4.00;;;;;;;30.32;29.13;98522.06;7398743;19;20014;-87
2024/03/11 01:25:45;;;;;;;12.35;3.90;;;;;;;31.10;28.68;98513.47;7393688;19;20371;-87
2024/03/11 01:28:11;;;;;;;12.93;3.42;;;;;;;31.13;28.22;98509.31;7392358;19;20021;-87
2024/03/11 01:30:38;;;;;;;8.40;3.20;;;;;;;31.52;28.02;98519.63;7397819;19;20047;-87
2024/03/11 01:33:05;;;;;;;10.25;3.72;;;;;;;31.69;27.45;98516.03;7393795;19;20030;-87
2024/03/11 01:35:32;;;;;;;22.80;4.85;;;;;;;31.55;27.39;98526.97;7392685;19;20015;-85
2024/03/11 01:37:58;;;;;;;11.63;4.68;;;;;;;31.58;27.66;98522.78;7395342;19;20019;-89
2024/03/11 01:40:27;;;;;;;10.23;4.30;;;;;;;31.74;27.31;98529.22;7398001;19;20011;-89
2024/03/11 01:42:54;;;;;;;7.88;4.68;;;;;;;31.89;27.12;98528.41;7396699;19;20376;-90
2024/03/11 01:45:22;;;;;;;18.05;4.60;;;;;;;31.79;27.00;98528.00;7394160;19;20488;-92
2024/03/11 01:47:52;;;;;;;12.40;3.35;;;;;;;32.46;26.42;98526.47;7392105;19;20483;-86
2024/03/11 01:50:18;;;;;;;11.38;4.28;;;;;;;32.75;26.01;98525.41;7395444;19;20010;-89
2024/03/11 01:52:44;;;;;;;9.00;2.72;;;;;;;32.59;26.40;98522.66;7395418;19;20029;-89
2024/03/11 01:55:12;;;;;;;15.98;4.57;;;;;;;32.61;26.11;98524.88;7391183;19;20041;-89
2024/03/11 01:57:40;;;;;;;17.35;5.75;;;;;;;32.76;26.18;98524.78;7395522;19;20018;-89
2024/03/11 02:00:09;;;;;;;21.27;2.92;;;;;;;32.61;26.31;98522.00;7397691;19;20025;-89
2024/03/11 02:02:36;;;;;;;8.90;2.88;;;;;;;32.65;25.92;98527.91;7394489;19;20022;-89
2024/03/11 02:05:03;;;;;;;13.35;3.78;;;;;;;32.28;26.16;98528.59;7395637;19;20018;-89
2024/03/11 02:07:30;;;;;;;7.53;3.50;;;;;;;31.95;27.05;98525.81;7391988;19;20014;-88
2024/03/11 02:09:56;;;;;;;18.35;3.97;;;;;;;32.70;25.84;98530.28;7392653;19;20030;-89
2024/03/11 02:12:24;;;;;;;15.38;4.22;;;;;;;32.80;26.20;98532.81;7392889;19;20019;-89
2024/03/11 02:14:50;;;;;;;18.25;4.35;;;;;;;32.30;26.13;98528.69;7392167;19;20038;-89
2024/03/11 02:17:16;;;;;;;12.10;3.83;;;;;;;32.23;26.49;98529.13;7395854;19;20115;-89
2024/03/11 02:19:43;;;;;;;13.20;2.80;;;;;;;32.28;26.59;98537.25;7396170;19;20022;-88
2024/03/11 02:22:09;;;;;;;17.27;5.22;;;;;;;32.58;26.24;98531.97;7399623;19;20038;-89
2024/03/11 02:24:35;;;;;;;10.57;3.97;;;;;;;31.99;26.49;98544.00;7393378;19;20133;-89
2024/03/11 02:27:02;;;;;;;11.55;2.60;;;;;;;31.81;26.56;98545.38;7393065;19;20025;-89
2024/03/11 02:29:28;;;;;;;17.35;4.70;;;;;;;31.76;26.67;98537.94;7394429;19;20023;-89
2024/03/11 02:31:54;;;;;;;9.73;3.67;;;;;;;31.84;26.66;98544.03;7392711;19;20014;-89
2024/03/11 02:34:21;;;;;;;4.30;2.50;;;;;;;31.86;26.57;98544.16;7394728;19;20018;-89
2024/03/11 02:36:49;;;;;;;13.00;2.63;;;;;;;31.60;26.80;98543.03;7392457;19;20025;-88
2024/03/11 02:39:16;;;;;;;7.05;3.22;;;;;;;31.51;26.52;98552.72;7394760;19;20035;-89
2024/03/11 02:41:43;;;;;;;9.93;2.97;;;;;;;31.46;26.63;98553.91;7394435;19;20029;-89
2024/03/11 02:44:12;;;;;;;17.15;3.90;;;;;;;31.31;27.01;98553.28;7391691;19;20014;-89
2024/03/11 02:46:44;;;;;;;5.40;2.65;;;;;;;31.27;26.60;98561.00;7391738;19;20011;-88
2024/03/11 02:49:11;;;;;;;6.50;3.00;;;;;;;31.41;26.70;98556.63;7391012;19;20018;-88
2024/03/11 02:51:41;;;;;;;3.28;2.15;;;;;;;31.31;26.83;98552.53;7392745;19;20116;-89
2024/03/11 02:54:08;;;;;;;16.63;3.35;;;;;;;32.31;26.21;98564.75;7391222;19;20725;-89
2024/03/11 02:56:35;;;;;;;7.32;1.65;;;;;;;32.65;25.97;98559.63;7391175;19;20011;-89
2024/03/11 02:59:02;;;;;;;8.27;3.25;;;;;;;32.58;25.83;98567.31;7392668;19;20015;-89
2024/03/11 03:01:28;;;;;;;10.02;3.20;;;;;;;32.68;25.88;98567.69;7396720;19;20015;-89
2024/03/11 03:03:54;;;;;;;5.25;2.85;;;;;;;32.78;25.39;98578.91;7392079;19;20499;-89
2024/03/11 03:06:20;;;;;;;11.20;2.40;;;;;;;32.48;25.71;98574.81;7390202;19;20436;-89
2024/03/11 03:08:46;;;;;;;13.30;3.90;;;;;;;32.44;25.84;98574.63;7390111;19;20019;-89
2024/03/11 03:11:12;;;;;;;11.00;1.80;;;;;;;32.35;25.83;98573.56;7394513;19;20088;-89
2024/03/11 03:13:39;;;;;;;6.13;3.05;;;;;;;32.36;25.89;98580.81;7389975;19;20053;-89
2024/03/11 03:16:06;;;;;;;2.78;1.80;;;;;;;32.07;26.00;98575.28;7390298;19;20014;-89
2024/03/11 03:18:34;;;;;;;2.90;2.33;;;;;;;31.84;26.29;98572.84;7392000;19;20018;-88
2024/03/11 03:21:01;;;;;;;8.13;2.03;;;;;;;31.88;26.32;98576.63;7394571;19;20010;-89
2024/03/11 03:23:27;;;;;;;16.27;2.67;;;;;;;31.93;26.09;98581.16;7396581;19;20038;-88
2024/03/11 03:25:53;;;;;;;5.72;2.75;;;;;;;31.93;26.11;98581.16;7390113;19;20050;-88
2024/03/11 03:28:19;;;;;;;2.05;1.20;;;;;;;31.95;26.16;98574.78;7390650;19;20015;-88
2024/03/11 03:30:48;;;;;;;4.25;2.05;;;;;;;31.96;25.75;98573.38;7392907;19;20031;-89
2024/03/11 03:33:14;;;;;;;6.95;2.33;;;;;;;32.02;26.09;98576.53;7390973;19;20021;-89
2024/03/11 03:35:41;;;;;;;9.73;2.33;;;;;;;32.13;25.94;98575.53;7390313;19;20051;-88
2024/03/11 03:38:07;;;;;;;3.63;2.15;;;;;;;32.09;25.69;98572.50;7392043;19;20025;-88
2024/03/11 03:40:33;;;;;;;16.35;2.85;;;;;;;33.02;25.14;98573.34;7390280;19;20022;-88
2024/03/11 03:42:59;;;;;;;3.78;2.15;;;;;;;33.14;24.72;98585.31;7394323;19;20018;-88
2024/03/11 03:45:25;;;;;;;8.77;2.40;;;;;;;33.09;25.03;98581.56;7392052;19;20537;-88
2024/03/11 03:47:51;;;;;;;6.63;2.50;;;;;;;33.13;25.17;98578.09;7389853;19;20011;-88
2024/03/11 03:50:17;;;;;;;8.57;2.75;;;;;;;32.00;25.80;98587.97;7388351;19;20464;-89
2024/03/11 03:52:44;;;;;;;9.45;2.08;;;;;;;31.78;25.84;98586.97;7393259;19;20024;-89
2024/03/11 03:55:14;;;;;;;6.65;2.00;;;;;;;31.82;25.92;98595.78;7385897;19;20018;-89
2024/03/11 03:57:44;;;;;;;4.15;2.17;;;;;;;31.84;25.96;98579.34;7390932;19;20494;-88
2024/03/11 04:00:15;;;;;;;2.08;1.95;;;;;;;31.91;26.09;98586.09;7390177;19;20002;-89
2024/03/11 04:02:46;;;;;;;2.88;2.10;;;;;;;32.01;25.79;98586.56;7390071;19;20014;-88
2024/03/11 04:05:12;;;;;;;1.23;1.23;;;;;;;32.06;25.83;98585.31;7390695;19;20033;-88
2024/03/11 04:07:40;;;;;;;4.15;1.65;;;;;;;31.92;25.42;98582.56;7389132;19;20127;-89
2024/03/11 04:10:13;;;;;;;3.20;1.77;;;;;;;31.88;25.81;98587.44;7387740;19;20018;-88
2024/03/11 04:12:44;;;;;;;7.85;2.88;;;;;;;31.93;25.85;98597.69;7389282;19;20877;-88
2024/03/11 04:15:12;;;;;;;6.68;3.20;;;;;;;32.26;25.52;98599.81;7388130;19;20386;-88
2024/03/11 04:17:40;;;;;;;3.72;2.50;;;;;;;32.33;25.44;98593.66;7391597;19;20037;-88
2024/03/11 04:20:11;;;;;;;17.05;3.05;;;;;;;32.44;25.53;98598.44;7390692;19;20025;-86
2024/03/11 04:22:41;;;;;;;17.90;2.75;;;;;;;32.33;25.50;98598.69;7392321;19;20023;-88
2024/03/11 04:25:14;;;;;;;6.00;2.05;;;;;;;32.23;25.18;98590.34;7387553;19;20011;-88
2024/03/11 04:27:40;;;;;;;2.78;1.60;;;;;;;32.32;25.55;98614.47;7387501;19;20006;-88
2024/03/11 04:30:07;;;;;;;9.82;3.45;;;;;;;32.30;25.43;98612.25;7389045;19;20380;-88
2024/03/11 04:32:33;;;;;;;8.40;2.60;;;;;;;32.26;25.47;98612.09;7386880;19;20025;-89
2024/03/11 04:34:59;;;;;;;4.75;2.10;;;;;;;32.15;25.61;98618.84;7387644;19;20047;-89
2024/03/11 04:37:25;;;;;;;12.90;3.47;;;;;;;32.06;25.33;98622.78;7389354;19;20389;-88
2024/03/11 04:39:51;;;;;;;8.27;1.27;;;;;;;32.12;25.67;98625.91;7390631;19;20018;-89
2024/03/11 04:42:17;;;;;;;1.45;1.27;;;;;;;32.07;25.91;98619.25;7389282;19;20042;-89
2024/03/11 04:44:43;;;;;;;13.43;3.35;;;;;;;32.24;25.58;98626.44;7388227;19;20543;-89
2024/03/11 04:47:10;;;;;;;6.20;2.85;;;;;;;32.24;25.11;98626.44;7387709;19;20370;-89
2024/03/11 04:49:36;;;;;;;22.23;3.67;;;;;;;32.31;25.40;98622.41;7389206;19;20019;-88
2024/03/11 04:52:03;;;;;;;6.57;1.67;;;;;;;32.34;25.46;98623.94;7391583;19;20349;-89
2024/03/11 04:54:30;;;;;;;16.52;2.10;;;;;;;32.30;25.60;98641.09;7389195;19;20038;-89
2024/03/11 04:56:57;;;;;;;22.02;5.55;;;;;;;32.20;25.38;98637.78;7389470;19;20021;-89
2024/03/11 04:59:23;;;;;;;6.47;2.35;;;;;;;32.18;25.34;98643.47;7390065;19;20018;-89
2024/03/11 05:01:49;;;;;;;12.07;2.58;;;;;;;32.18;25.54;98647.06;7388167;19;20029;-88
2024/03/11 05:04:15;;;;;;;4.65;1.50;;;;;;;32.30;25.54;98641.09;7391427;19;20094;-89
2024/03/11 05:06:41;;;;;;;7.82;2.22;;;;;;;32.28;25.13;98641.00;7388799;19;20006;-88
2024/03/11 05:09:07;;;;;;;4.65;2.35;;;;;;;32.30;25.27;98646.84;7393956;19;20029;-89
2024/03/11 05:11:33;;;;;;;10.60;2.80;;;;;;;32.49;25.32;98657.75;7395953;19;20015;-89
2024/03/11 05:14:00;;;;;;;10.27;3.22;;;;;;;32.39;25.16;98660.19;7393888;19;20018;-88
2024/03/11 05:16:26;;;;;;;10.15;3.58;;;;;;;32.31;25.13;98657.00;7395695;19;20018;-88
2024/03/11 05:18:53;;;;;;;7.68;2.50;;;;;;;32.29;25.69;98665.56;7395977;19;20035;-89
2024/03/11 05:21:19;;;;;;;25.70;4.07;;;;;;;32.22;25.29;98668.81;7398801;19;20026;-89
2024/03/11 05:23:45;;;;;;;11.95;3.53;;;;;;;32.17;25.72;98667.91;7396597;19;20470;-89
2024/03/11 05:26:11;;;;;;;21.15;3.55;;;;;;;31.78;25.97;98662.59;7395728;19;20010;-89
2024/03/11 05:28:37;;;;;;;19.75;2.58;;;;;;;31.78;26.04;98674.13;7393535;19;20110;-89
2024/03/11 05:31:04;;;;;;;3.30;2.08;;;;;;;31.81;25.90;98672.06;7393834;19;20014;-88
2024/03/11 05:33:30;;;;;;;24.58;4.72;;;;;;;31.76;25.55;98676.16;7393457;19;20051;-89
2024/03/11 05:35:56;;;;;;;15.82;2.00;;;;;;;31.58;25.79;98684.00;7392614;19;20017;-88
2024/03/11 05:38:22;;;;;;;8.88;2.88;;;;;;;31.55;25.85;98679.53;7393797;19;20492;-88
2024/03/11 05:40:49;;;;;;;10.55;2.80;;;;;;;31.60;26.10;98681.22;7395068;19;20322;-89
2024/03/11 05:43:17;;;;;;;6.80;3.83;;;;;;;31.79;25.87;98690.00;7395222;19;20003;-89
2024/03/11 05:45:43;;;;;;;8.70;3.88;;;;;;;31.86;25.70;98685.25;7394540;19;20010;-89
2024/03/11 05:48:09;;;;;;;16.42;4.32;;;;;;;31.86;25.66;98685.25;7396329;19;20015;-88
2024/03/11 05:50:38;;;;;;;9.88;3.00;;;;;;;31.88;25.72;98682.47;7391591;19;20014;-88
2024/03/11 05:53:04;;;;;;;16.27;2.28;;;;;;;31.85;26.06;98683.75;7397528;19;20010;-88
2024/03/11 05:55:33;;;;;;;10.15;2.72;;;;;;;31.86;25.81;98696.78;7391431;19;20015;-89
2024/03/11 05:58:08;;;;;;;8.05;2.67;;;;;;;31.81;25.84;98698.00;7393165;19;20007;-88
2024/03/11 06:00:36;;;;;;;4.90;2.97;;;;;;;31.69;26.01;98695.31;7393619;19;20016;-88
2024/03/11 06:03:02;;;;;;;21.45;5.07;;;;;;;32.10;25.58;98697.84;7393399;19;20019;-89
2024/03/11 06:05:29;;;;;;;5.35;0.77;;;;;;;32.51;25.45;98700.34;7393485;19;20099;-88
2024/03/11 06:07:55;;;;;;;6.18;2.47;;;;;;;32.54;25.03;98704.78;7392287;19;20063;-88
2024/03/11 06:10:21;;;;;;;7.13;2.97;;;;;;;32.58;25.13;98717.25;7391599;19;20399;-89
2024/03/11 06:12:48;;;;;;;18.42;3.40;;;;;;;32.09;25.91;98731.69;7392006;19;20348;-89
2024/03/11 06:15:14;;;;;;;23.02;4.78;;;;;;;31.43;25.97;98726.50;7392001;19;20035;-89
2024/03/11 06:17:41;;;;;;;10.18;3.38;;;;;;;29.61;27.37;98738.78;7391438;19;20026;-88
2024/03/11 06:20:09;;;;;;;5.85;3.50;;;;;;;29.00;28.17;98740.38;7393433;19;20018;-89
2024/03/11 06:22:36;;;;;;;16.58;2.20;;;;;;;28.76;28.33;98739.00;7395452;19;20022;-88
2024/03/11 06:25:04;;;;;;;8.50;3.42;;;;;;;28.73;28.18;98751.75;7393064;19;20018;-88
2024/03/11 06:27:30;;;;;;;10.82;1.65;;;;;;;28.49;28.64;98756.78;7392196;19;20015;-88
2024/03/11 06:30:01;;;;;;;2.00;1.52;;;;;;;28.47;28.83;98748.06;7389870;19;20014;-87
2024/03/11 06:32:30;;;;;;;10.95;2.78;;;;;;;28.81;28.36;98754.31;7395376;19;20018;-88
2024/03/11 06:34:57;;;;;;;4.68;2.28;;;;;;;28.95;28.48;98769.47;7392683;19;20018;-89
2024/03/11 06:37:23;;;;;;;5.35;2.05;;;;;;;28.74;28.45;98769.69;7393126;19;20472;-88
2024/03/11 06:39:49;;;;;;;4.88;1.90;;;;;;;28.38;29.01;98771.13;7393267;19;20026;-89
2024/03/11 06:42:15;;;;;;;12.85;3.58;;;;;;;28.02;29.41;98771.81;7396722;19;20011;-87
2024/03/11 06:44:43;;;;;;;3.13;1.55;;;;;;;28.07;29.40;98788.59;7392089;19;20014;-86
2024/03/11 06:47:09;;;;;;;8.75;2.58;;;;;;;28.05;29.53;98784.88;7389559;19;20014;-88
2024/03/11 06:49:36;;;;;;;10.63;3.47;;;;;;;28.08;29.01;98786.50;7391718;19;20013;-88
2024/03/11 06:52:02;;;;;;;12.00;2.88;;;;;;;28.20;29.17;98798.66;7395727;19;20014;-88
2024/03/11 06:54:29;;;;;;;5.10;3.50;;;;;;;28.21;29.33;98794.44;7392009;19;20010;-88
2024/03/11 06:56:55;;;;;;;5.25;2.35;;;;;;;28.46;29.04;98809.59;7392194;19;20492;-88
2024/03/11 06:59:21;;;;;;;2.80;2.05;;;;;;;28.36;29.13;98811.13;7391919;19;20018;-87
2024/03/11 07:01:47;;;;;;;2.10;1.33;;;;;;;28.14;29.14;98813.38;7394634;19;20022;-87
2024/03/11 07:04:13;;;;;;;8.40;1.48;;;;;;;28.11;29.51;98826.06;7392870;19;20404;-88
2024/03/11 07:06:39;;;;;;;15.73;3.25;;;;;;;27.96;29.38;98825.81;7389793;19;20010;-86
2024/03/11 07:09:07;;;;;;;11.98;3.95;;;;;;;27.82;29.42;98825.66;7389405;19;20018;-88
2024/03/11 07:11:33;;;;;;;18.10;1.98;;;;;;;28.04;29.74;98832.81;7393676;19;20019;-88
2024/03/11 07:13:59;;;;;;;12.45;3.42;;;;;;;28.19;29.23;98828.69;7392889;19;20022;-88
2024/03/11 07:16:27;;;;;;;6.10;2.20;;;;;;;27.06;30.14;98835.78;7395166;19;20031;-87
2024/03/11 07:18:54;;;;;;;20.65;2.30;;;;;;;25.83;31.60;98840.84;7395906;19;20022;-87
2024/03/11 07:21:27;;;;;;;9.45;1.75;;;;;;;25.25;32.41;98845.94;7395000;19;20372;-87
2024/03/11 07:23:55;;;;;;;4.47;1.95;;;;;;;26.44;30.67;98846.59;7396590;19;20030;-87
2024/03/11 07:26:22;;;;;;;7.30;2.35;;;;;;;26.49;31.10;98848.34;7395095;19;20018;-87
2024/03/11 07:28:48;;;;;;;9.07;2.60;;;;;;;26.66;31.02;98856.66;7389302;19;20018;-87
2024/03/11 07:31:16;;;;;;;4.25;1.60;;;;;;;26.79;31.11;98852.56;7393416;19;20010;-87
2024/03/11 07:33:42;;;;;;;11.95;3.42;;;;;;;26.82;30.60;98851.31;7389723;19;20006;-87
2024/03/11 07:36:08;;;;;;;8.57;3.42;;;;;;;26.30;31.15;98854.19;7393592;19;20029;-87
2024/03/11 07:38:35;;;;;;;4.80;2.75;;;;;;;25.60;32.11;98854.88;7393413;19;20018;-88
2024/03/11 07:41:01;;;;;;;12.68;2.13;;;;;;;25.27;32.45;98855.38;7394026;19;20027;-87
2024/03/11 07:43:27;;;;;;;2.58;1.67;;;;;;;27.98;30.03;98866.75;7394360;19;20022;-87
2024/03/11 07:45:54;;;;;;;4.50;2.25;;;;;;;27.96;30.02;98878.06;7393365;19;20010;-88
2024/03/11 07:48:22;;;;;;;8.45;1.98;;;;;;;27.20;30.59;98878.84;7393082;19;20033;-87
2024/03/11 07:50:49;;;;;;;9.30;3.60;;;;;;;26.97;30.87;98873.75;7392121;19;20010;-88
2024/03/11 07:53:16;;;;;;;5.60;3.17;;;;;;;26.95;30.90;98880.09;7391894;19;20010;-87
2024/03/11 07:55:42;;;;;;;9.60;3.53;;;;;;;26.87;31.34;98879.56;7393653;19;20026;-87
2024/03/11 07:58:08;;;;;;;17.52;2.05;;;;;;;26.79;31.25;98889.69;7394248;19;20102;-88
2024/03/11 08:00:37;;;;;;;6.30;2.75;;;;;;;26.49;31.06;98894.03;7392621;19;20033;-87
2024/03/11 08:03:04;;;;;;;8.20;2.78;;;;;;;25.07;32.64;98905.19;7393885;19;20033;-87
2024/03/11 08:05:30;;;;;;;3.20;1.83;;;;;;;25.12;32.73;98918.34;7393363;19;20034;-88
2024/03/11 08:07:58;;;;;;;7.43;2.88;;;;;;;25.80;32.32;98914.13;7393081;19;20019;-87
2024/03/11 08:10:25;;;;;;;8.32;3.22;;;;;;;25.80;31.92;98916.22;7388633;19;20014;-87
2024/03/11 08:12:56;;;;;;;2.78;1.40;;;;;;;25.66;32.42;98918.06;7391917;19;20010;-88
2024/03/11 08:15:23;;;;;;;10.88;3.75;;;;;;;24.80;33.01;98927.31;7388311;19;20061;-87
2024/03/11 08:17:50;;;;;;;9.23;2.83;;;;;;;24.47;33.40;98931.88;7389316;19;20029;-87
2024/03/11 08:20:18;;;;;;;5.03;3.65;;;;;;;24.30;33.93;98929.84;7389671;19;20053;-87
2024/03/11 08:22:47;;;;;;;11.32;3.47;;;;;;;25.20;32.94;98930.38;7392031;19;20014;-88
2024/03/11 08:25:22;;;;;;;2.72;2.00;;;;;;;26.43;31.90;98933.59;7393370;19;20013;-88
2024/03/11 08:27:52;;;;;;;6.88;2.78;;;;;;;26.60;31.53;98927.66;7387935;19;20026;-88
2024/03/11 08:30:22;;;;;;;6.43;2.50;;;;;;;26.76;31.85;98940.22;7388749;19;20025;-88
2024/03/11 08:32:50;;;;;;;6.63;2.05;;;;;;;27.01;31.62;98939.75;7387559;19;20030;-88
2024/03/11 08:35:17;;;;;;;1.33;1.23;;;;;;;26.87;31.82;98942.41;7387396;19;20066;-89
2024/03/11 08:37:43;;;;;;;4.65;2.47;;;;;;;27.04;31.56;98935.69;7394402;19;20484;-88
2024/03/11 08:40:16;;;;;;;3.40;2.40;;;;;;;26.38;32.10;98928.22;7388268;19;20035;-88
2024/03/11 08:42:47;;;;;;;8.45;3.47;;;;;;;26.16;32.25;98941.69;7396217;19;20082;-88
2024/03/11 08:45:13;;;;;;;7.97;2.97;;;;;;;26.20;32.20;98948.44;7396136;19;20025;-88
2024/03/11 08:47:39;;;;;;;15.93;3.92;;;;;;;26.31;32.11;98947.03;7393480;19;20094;-88
2024/03/11 08:50:08;;;;;;;4.07;1.48;;;;;;;25.47;32.88;98942.41;7395637;19;20417;-90
2024/03/11 08:52:37;;;;;;;11.70;3.45;;;;;;;25.47;33.48;98953.03;7395621;19;20365;-88
2024/03/11 08:55:07;;;;;;;10.73;2.35;;;;;;;25.09;33.58;98947.31;7390753;19;20349;-82
2024/03/11 08:57:34;;;;;;;5.25;2.80;;;;;;;25.37;33.28;98955.88;7397379;19;20007;-82
2024/03/11 09:00:06;;;;;;;11.40;3.00;;;;;;;24.79;34.30;98957.16;7396746;19;20006;-82
2024/03/11 09:02:32;;;;;;;9.25;2.75;;;;;;;24.15;35.13;98963.50;7395736;19;20028;-82
2024/03/11 09:04:58;;;;;;;7.35;3.22;;;;;;;23.56;35.89;98966.53;7393960;19;20014;-81
2024/03/11 09:07:27;;;;;;;13.32;2.67;;;;;;;24.31;35.25;98962.66;7392655;19;20015;-82
2024/03/11 09:09:56;;;;;;;4.65;1.63;;;;;;;23.43;36.05;98967.66;7395926;19;20325;-81
2024/03/11 09:12:22;;;;;;;8.73;4.40;;;;;;;23.76;35.47;98963.22;7396042;19;20553;-82
2024/03/11 09:14:48;;;;;;;4.70;2.38;;;;;;;24.35;35.55;98962.97;7394275;19;20483;-82
2024/03/11 09:17:17;;;;;;;3.47;2.17;;;;;;;24.81;34.38;98965.88;7393890;19;20024;-82
2024/03/11 09:19:43;;;;;;;6.18;2.65;;;;;;;24.51;34.71;98980.59;7393957;19;20015;-82
2024/03/11 09:22:10;;;;;;;4.32;1.63;;;;;;;23.03;36.58;98981.28;7399868;19;20011;-81
2024/03/11 09:24:36;;;;;;;6.90;2.75;;;;;;;22.49;37.52;98986.66;7394680;19;20606;-82
2024/03/11 09:27:03;;;;;;;5.03;1.02;;;;;;;21.72;38.91;98989.75;7392860;19;20086;-81
2024/03/11 09:29:29;;;;;;;9.35;2.90;;;;;;;21.62;38.94;98997.34;7393180;19;20030;-80
2024/03/11 09:31:56;;;;;;;9.43;2.22;;;;;;;23.13;37.33;98996.34;7392991;19;20029;-81
2024/03/11 09:34:22;;;;;;;7.55;3.10;;;;;;;23.67;36.61;98997.28;7393184;19;20021;-81
2024/03/11 09:36:48;;;;;;;8.27;2.53;;;;;;;23.78;36.22;98996.78;7394119;19;20026;-80
2024/03/11 09:39:18;;;;;;;3.70;2.55;;;;;;;23.73;36.29;99004.22;7395048;19;20107;-80
2024/03/11 09:41:47;;;;;;;17.40;2.55;;;;;;;23.01;37.14;99012.38;7393123;19;20018;-80
2024/03/11 09:44:16;;;;;;;10.13;3.47;;;;;;;23.13;37.65;99013.41;7393413;19;20030;-81
2024/03/11 09:46:45;;;;;;;5.82;2.92;;;;;;;23.41;36.82;99010.09;7392519;19;20045;-81
2024/03/11 09:49:15;;;;;;;5.50;3.65;;;;;;;23.10;37.05;99011.72;7391460;19;20356;-81
2024/03/11 09:51:45;;;;;;;12.35;3.28;;;;;;;23.10;37.38;99014.56;7392638;19;20021;-81
2024/03/11 09:54:19;;;;;;;5.60;1.73;;;;;;;23.94;35.96;99015.13;7392095;19;20017;-82
2024/03/11 09:56:50;;;;;;;5.97;2.13;;;;;;;23.65;36.53;99017.75;7389959;19;20337;-82
2024/03/11 09:59:19;;;;;;;5.60;2.13;;;;;;;24.01;36.53;99032.13;7395286;19;20037;-82
2024/03/11 10:01:52;;;;;;;5.45;2.17;;;;;;;24.73;35.55;99025.75;7394979;19;20024;-82
2024/03/11 10:04:22;;;;;;;1.45;1.35;;;;;;;25.60;34.34;99028.84;7395243;19;20035;-82
2024/03/11 10:06:56;;;;;;;9.13;1.20;;;;;;;25.76;33.90;99024.34;7389558;19;20017;-82
2024/03/11 10:09:24;;;;;;;7.25;1.85;;;;;;;25.75;34.26;99022.84;7390995;19;20048;-81
2024/03/11 10:12:10;;;;;;;10.35;2.47;;;;;;;25.72;34.20;99018.34;7394021;19;20010;-81
2024/03/11 10:14:40;;;;;;;8.82;1.95;;;;;;;26.43;33.27;99021.38;7392029;19;20396;-82
2024/03/11 10:17:20;;;;;;;18.38;2.97;;;;;;;26.70;32.85;99022.63;7393965;19;20137;-81
2024/03/11 10:19:54;;;;;;;6.30;2.60;;;;;;;26.68;32.96;99019.63;7391388;19;20015;-81
2024/03/11 10:22:24;;;;;;;18.33;1.88;;;;;;;26.76;32.50;99025.94;7395629;19;20365;-82
2024/03/11 10:24:54;;;;;;;3.38;2.00;;;;;;;27.57;31.97;99025.78;7392602;19;20428;-81
2024/03/11 10:27:22;;;;;;;4.95;2.03;;;;;;;27.31;32.35;99030.41;7390833;19;20033;-81
2024/03/11 10:29:49;;;;;;;3.47;1.90;;;;;;;29.19;30.55;99029.00;7389429;19;20635;-80
2024/03/11 10:32:32;;;;;;;5.95;2.33;;;;;;;29.10;30.42;99038.47;7392529;19;20014;-81
2024/03/11 10:34:58;;;;;;;6.00;1.63;;;;;;;28.33;31.03;99027.91;7391929;19;20118;-82
2024/03/11 10:37:24;;;;;;;2.38;1.58;;;;;;;26.82;32.63;99026.34;7389856;19;20537;-81
2024/03/11 10:39:50;;;;;;;6.70;3.20;;;;;;;26.33;32.79;99035.69;7390429;19;20349;-80
2024/03/11 10:42:32;;;;;;;4.35;1.98;;;;;;;26.89;32.67;99038.97;7392652;19;20337;-81
2024/03/11 10:45:02;;;;;;;4.70;2.53;;;;;;;26.78;32.64;99042.47;7392961;19;20033;-80
2024/03/11 10:47:31;;;;;;;4.80;2.70;;;;;;;25.98;33.09;99045.94;7389377;19;20021;-86
2024/03/11 10:50:01;;;;;;;5.20;2.78;;;;;;;25.85;33.54;99032.13;7391126;19;20045;-80
2024/03/11 10:52:33;;;;;;;15.27;3.63;;;;;;;25.74;33.51;99032.75;7395880;19;20022;-80
2024/03/11 10:55:02;;;;;;;4.95;2.65;;;;;;;26.13;33.40;99039.94;7392112;19;20027;-80
2024/03/11 10:57:38;;;;;;;6.18;1.85;;;;;;;26.21;33.57;99040.50;7389239;19;20021;-81
2024/03/11 11:02:43;;;;;;;4.80;2.15;;;;;;;26.97;32.06;99040.28;7389926;19;20349;-81
2024/03/11 11:05:13;;;;;;;7.25;2.35;;;;;;;26.49;33.12;99042.53;7385820;19;20028;-80
2024/03/11 11:07:42;;;;;;;8.40;2.30;;;;;;;26.40;33.10;99040.47;7390959;19;20480;-81
2024/03/11 11:10:11;;;;;;;13.25;2.58;;;;;;;26.20;33.26;99036.19;7386693;19;20031;-81
2024/03/11 11:12:42;;;;;;;6.78;2.22;;;;;;;26.08;33.41;99046.66;7381679;19;20014;-80
2024/03/11 11:15:14;;;;;;;5.35;1.00;;;;;;;26.34;33.36;99051.47;7381705;19;20029;-81
2024/03/11 11:17:42;;;;;;;6.65;3.25;;;;;;;26.41;33.11;99046.94;7383164;19;20364;-80
2024/03/11 11:20:34;;;;;;;5.90;2.15;;;;;;;26.76;32.96;99037.38;7386581;19;20574;-80
2024/03/11 11:23:02;;;;;;;8.43;2.30;;;;;;;25.87;34.02;99040.84;7387878;19;20099;-80
2024/03/11 11:25:56;;;;;;;4.93;1.90;;;;;;;26.32;33.18;99048.47;7383526;19;20011;-81
2024/03/11 11:28:26;;;;;;;24.02;2.95;;;;;;;26.53;33.24;99054.25;7386396;19;20027;-81
2024/03/11 11:31:15;;;;;;;3.75;2.58;;;;;;;25.68;34.00;99063.66;7389890;19;20503;-81
2024/03/11 11:33:53;;;;;;;6.28;2.50;;;;;;;25.64;34.50;99069.06;7388677;19;20019;-80
2024/03/11 11:36:32;;;;;;;8.48;4.22;;;;;;;24.86;34.92;99058.06;7388296;19;20491;-80